sensor_id;sensor_type;location;lat;lon;timestamp;P1;durP1;ratioP1;P2;durP2;ratioP2
20462;SDS011;10390;53.566;9.980;2023-10-08T00:00:43;9.02;;;7.57;;
20462;SDS011;10390;53.566;9.980;2023-10-08T00:03:15;8.52;;;7.72;;
20462;SDS011;10390;53.566;9.980;2023-10-08T00:05:45;8.30;;;7.50;;
20462;SDS011;10390;53.566;9.980;2023-10-08T00:08:11;8.57;;;7.60;;
20462;SDS011;10390;53.566;9.980;2023-10-08T00:10:38;8.20;;;7.38;;
20462;SDS011;10390;53.566;9.980;2023-10-08T00:13:06;9.38;;;8.35;;
20462;SDS011;10390;53.566;9.980;2023-10-08T00:15:35;8.50;;;7.57;;
20462;SDS011;10390;53.566;9.980;2023-10-08T00:18:02;9.48;;;8.52;;
20462;SDS011;10390;53.566;9.980;2023-10-08T00:20:30;8.95;;;7.63;;
20462;SDS011;10390;53.566;9.980;2023-10-08T00:23:07;8.95;;;7.88;;
20462;SDS011;10390;53.566;9.980;2023-10-08T00:25:34;8.75;;;7.80;;
20462;SDS011;10390;53.566;9.980;2023-10-08T00:28:05;8.90;;;8.02;;
20462;SDS011;10390;53.566;9.980;2023-10-08T00:30:37;8.52;;;7.63;;
20462;SDS011;10390;53.566;9.980;2023-10-08T00:33:04;8.90;;;7.95;;
20462;SDS011;10390;53.566;9.980;2023-10-08T00:35:30;8.20;;;7.40;;
20462;SDS011;10390;53.566;9.980;2023-10-08T00:37:55;9.27;;;7.93;;
20462;SDS011;10390;53.566;9.980;2023-10-08T00:40:25;9.02;;;8.00;;
20462;SDS011;10390;53.566;9.980;2023-10-08T00:43:01;8.55;;;7.72;;
20462;SDS011;10390;53.566;9.980;2023-10-08T00:45:38;9.05;;;8.15;;
20462;SDS011;10390;53.566;9.980;2023-10-08T00:48:11;8.25;;;7.45;;
20462;SDS011;10390;53.566;9.980;2023-10-08T00:50:47;9.25;;;8.18;;
20462;SDS011;10390;53.566;9.980;2023-10-08T00:53:12;8.38;;;7.53;;
20462;SDS011;10390;53.566;9.980;2023-10-08T00:55:48;8.93;;;8.02;;
20462;SDS011;10390;53.566;9.980;2023-10-08T00:58:30;9.50;;;7.65;;
20462;SDS011;10390;53.566;9.980;2023-10-08T01:00:59;8.63;;;7.50;;
20462;SDS011;10390;53.566;9.980;2023-10-08T01:03:26;8.60;;;7.68;;
20462;SDS011;10390;53.566;9.980;2023-10-08T01:05:52;8.07;;;7.28;;
20462;SDS011;10390;53.566;9.980;2023-10-08T01:08:22;8.93;;;7.90;;
20462;SDS011;10390;53.566;9.980;2023-10-08T01:11:20;8.68;;;7.80;;
20462;SDS011;10390;53.566;9.980;2023-10-08T01:13:51;8.95;;;7.45;;
20462;SDS011;10390;53.566;9.980;2023-10-08T01:16:19;8.35;;;7.55;;
20462;SDS011;10390;53.566;9.980;2023-10-08T01:18:45;8.77;;;7.88;;
20462;SDS011;10390;53.566;9.980;2023-10-08T01:21:15;8.80;;;7.90;;
20462;SDS011;10390;53.566;9.980;2023-10-08T01:23:56;8.77;;;7.68;;
20462;SDS011;10390;53.566;9.980;2023-10-08T01:26:25;11.43;;;8.70;;
20462;SDS011;10390;53.566;9.980;2023-10-08T01:28:51;9.38;;;8.43;;
20462;SDS011;10390;53.566;9.980;2023-10-08T01:31:20;9.13;;;8.23;;
20462;SDS011;10390;53.566;9.980;2023-10-08T01:33:45;9.60;;;8.25;;
20462;SDS011;10390;53.566;9.980;2023-10-08T01:36:21;9.60;;;8.00;;
20462;SDS011;10390;53.566;9.980;2023-10-08T01:38:50;10.13;;;8.90;;
20462;SDS011;10390;53.566;9.980;2023-10-08T01:41:17;9.40;;;8.35;;
20462;SDS011;10390;53.566;9.980;2023-10-08T01:43:54;9.80;;;8.43;;
20462;SDS011;10390;53.566;9.980;2023-10-08T01:46:19;9.23;;;8.32;;
20462;SDS011;10390;53.566;9.980;2023-10-08T01:48:47;9.70;;;8.70;;
20462;SDS011;10390;53.566;9.980;2023-10-08T01:51:15;8.80;;;7.72;;
20462;SDS011;10390;53.566;9.980;2023-10-08T01:53:50;9.40;;;7.95;;
20462;SDS011;10390;53.566;9.980;2023-10-08T01:56:19;9.68;;;8.68;;
20462;SDS011;10390;53.566;9.980;2023-10-08T01:58:44;9.15;;;8.25;;
20462;SDS011;10390;53.566;9.980;2023-10-08T02:01:11;8.93;;;7.90;;
20462;SDS011;10390;53.566;9.980;2023-10-08T02:03:38;8.63;;;7.50;;
20462;SDS011;10390;53.566;9.980;2023-10-08T02:06:04;8.88;;;7.75;;
20462;SDS011;10390;53.566;9.980;2023-10-08T02:08:31;9.27;;;8.13;;
20462;SDS011;10390;53.566;9.980;2023-10-08T02:10:57;8.93;;;7.82;;
20462;SDS011;10390;53.566;9.980;2023-10-08T02:13:22;9.93;;;8.25;;
20462;SDS011;10390;53.566;9.980;2023-10-08T02:15:51;10.75;;;8.52;;
20462;SDS011;10390;53.566;9.980;2023-10-08T02:18:17;9.13;;;8.20;;
20462;SDS011;10390;53.566;9.980;2023-10-08T02:20:44;7.75;;;6.95;;
20462;SDS011;10390;53.566;9.980;2023-10-08T02:23:10;8.98;;;8.07;;
20462;SDS011;10390;53.566;9.980;2023-10-08T02:25:39;8.55;;;7.60;;
20462;SDS011;10390;53.566;9.980;2023-10-08T02:28:07;8.55;;;7.65;;
20462;SDS011;10390;53.566;9.980;2023-10-08T02:30:36;9.02;;;7.45;;
20462;SDS011;10390;53.566;9.980;2023-10-08T02:33:04;7.90;;;7.10;;
20462;SDS011;10390;53.566;9.980;2023-10-08T02:35:39;8.05;;;7.20;;
20462;SDS011;10390;53.566;9.980;2023-10-08T02:38:09;8.85;;;7.65;;
20462;SDS011;10390;53.566;9.980;2023-10-08T02:40:38;7.82;;;7.05;;
20462;SDS011;10390;53.566;9.980;2023-10-08T02:43:10;8.00;;;7.20;;
20462;SDS011;10390;53.566;9.980;2023-10-08T02:45:36;8.18;;;7.30;;
20462;SDS011;10390;53.566;9.980;2023-10-08T02:48:06;8.30;;;7.22;;
20462;SDS011;10390;53.566;9.980;2023-10-08T02:50:38;7.63;;;6.65;;
20462;SDS011;10390;53.566;9.980;2023-10-08T02:53:05;8.02;;;7.22;;
20462;SDS011;10390;53.566;9.980;2023-10-08T02:55:40;8.00;;;7.20;;
20462;SDS011;10390;53.566;9.980;2023-10-08T02:58:10;7.63;;;6.82;;
20462;SDS011;10390;53.566;9.980;2023-10-08T03:00:41;7.97;;;7.15;;
20462;SDS011;10390;53.566;9.980;2023-10-08T03:03:12;7.90;;;7.15;;
20462;SDS011;10390;53.566;9.980;2023-10-08T03:05:43;7.35;;;6.63;;
20462;SDS011;10390;53.566;9.980;2023-10-08T03:08:13;7.75;;;6.78;;
20462;SDS011;10390;53.566;9.980;2023-10-08T03:10:44;7.63;;;6.63;;
20462;SDS011;10390;53.566;9.980;2023-10-08T03:13:10;7.05;;;6.35;;
20462;SDS011;10390;53.566;9.980;2023-10-08T03:15:38;7.47;;;6.78;;
20462;SDS011;10390;53.566;9.980;2023-10-08T03:18:11;8.30;;;7.18;;
20462;SDS011;10390;53.566;9.980;2023-10-08T03:20:39;7.88;;;6.78;;
20462;SDS011;10390;53.566;9.980;2023-10-08T03:23:05;8.23;;;6.70;;
20462;SDS011;10390;53.566;9.980;2023-10-08T03:25:37;7.95;;;6.50;;
20462;SDS011;10390;53.566;9.980;2023-10-08T03:28:11;7.40;;;6.55;;
20462;SDS011;10390;53.566;9.980;2023-10-08T03:30:38;7.28;;;6.53;;
20462;SDS011;10390;53.566;9.980;2023-10-08T03:33:16;6.95;;;6.25;;
20462;SDS011;10390;53.566;9.980;2023-10-08T03:35:47;6.95;;;5.95;;
20462;SDS011;10390;53.566;9.980;2023-10-08T03:38:20;7.50;;;6.68;;
20462;SDS011;10390;53.566;9.980;2023-10-08T03:40:53;6.35;;;5.68;;
20462;SDS011;10390;53.566;9.980;2023-10-08T03:43:22;7.00;;;6.30;;
20462;SDS011;10390;53.566;9.980;2023-10-08T03:45:59;7.10;;;6.30;;
20462;SDS011;10390;53.566;9.980;2023-10-08T03:48:30;6.75;;;5.90;;
20462;SDS011;10390;53.566;9.980;2023-10-08T03:51:01;7.60;;;6.53;;
20462;SDS011;10390;53.566;9.980;2023-10-08T03:53:34;7.25;;;6.45;;
20462;SDS011;10390;53.566;9.980;2023-10-08T03:56:07;6.55;;;5.57;;
20462;SDS011;10390;53.566;9.980;2023-10-08T03:58:33;7.50;;;6.28;;
20462;SDS011;10390;53.566;9.980;2023-10-08T04:01:06;7.15;;;6.45;;
20462;SDS011;10390;53.566;9.980;2023-10-08T04:03:35;7.82;;;6.03;;
20462;SDS011;10390;53.566;9.980;2023-10-08T04:06:20;7.03;;;5.90;;
20462;SDS011;10390;53.566;9.980;2023-10-08T04:08:55;7.03;;;6.00;;
20462;SDS011;10390;53.566;9.980;2023-10-08T04:11:30;7.47;;;6.20;;
20462;SDS011;10390;53.566;9.980;2023-10-08T04:14:00;7.03;;;5.80;;
20462;SDS011;10390;53.566;9.980;2023-10-08T04:16:28;5.93;;;5.25;;
20462;SDS011;10390;53.566;9.980;2023-10-08T04:18:54;5.95;;;5.13;;
20462;SDS011;10390;53.566;9.980;2023-10-08T04:21:23;6.03;;;5.05;;
20462;SDS011;10390;53.566;9.980;2023-10-08T04:23:52;6.00;;;5.30;;
20462;SDS011;10390;53.566;9.980;2023-10-08T04:26:19;6.10;;;5.47;;
20462;SDS011;10390;53.566;9.980;2023-10-08T04:28:49;6.68;;;5.40;;
20462;SDS011;10390;53.566;9.980;2023-10-08T04:31:19;7.38;;;5.82;;
20462;SDS011;10390;53.566;9.980;2023-10-08T04:33:49;7.00;;;6.03;;
20462;SDS011;10390;53.566;9.980;2023-10-08T04:36:16;6.38;;;5.63;;
20462;SDS011;10390;53.566;9.980;2023-10-08T04:38:45;7.63;;;6.03;;
20462;SDS011;10390;53.566;9.980;2023-10-08T04:41:14;6.50;;;5.75;;
20462;SDS011;10390;53.566;9.980;2023-10-08T04:43:43;6.60;;;5.90;;
20462;SDS011;10390;53.566;9.980;2023-10-08T04:46:09;6.50;;;5.43;;
20462;SDS011;10390;53.566;9.980;2023-10-08T04:48:47;6.43;;;5.53;;
20462;SDS011;10390;53.566;9.980;2023-10-08T04:51:14;6.45;;;5.68;;
20462;SDS011;10390;53.566;9.980;2023-10-08T04:53:43;7.05;;;5.90;;
20462;SDS011;10390;53.566;9.980;2023-10-08T04:56:11;6.93;;;6.00;;
20462;SDS011;10390;53.566;9.980;2023-10-08T04:58:44;6.88;;;6.18;;
20462;SDS011;10390;53.566;9.980;2023-10-08T05:01:15;6.00;;;5.40;;
20462;SDS011;10390;53.566;9.980;2023-10-08T05:04:00;6.57;;;5.47;;
20462;SDS011;10390;53.566;9.980;2023-10-08T05:06:28;6.03;;;5.43;;
20462;SDS011;10390;53.566;9.980;2023-10-08T05:09:07;6.28;;;5.68;;
20462;SDS011;10390;53.566;9.980;2023-10-08T05:11:44;5.78;;;5.15;;
20462;SDS011;10390;53.566;9.980;2023-10-08T05:14:19;6.43;;;5.40;;
20462;SDS011;10390;53.566;9.980;2023-10-08T05:17:02;5.63;;;5.03;;
20462;SDS011;10390;53.566;9.980;2023-10-08T05:19:40;7.15;;;5.70;;
20462;SDS011;10390;53.566;9.980;2023-10-08T05:22:15;6.22;;;5.40;;
20462;SDS011;10390;53.566;9.980;2023-10-08T05:24:55;6.18;;;5.57;;
20462;SDS011;10390;53.566;9.980;2023-10-08T05:27:51;6.20;;;5.60;;
20462;SDS011;10390;53.566;9.980;2023-10-08T05:30:19;9.00;;;5.97;;
20462;SDS011;10390;53.566;9.980;2023-10-08T05:33:07;6.30;;;5.70;;
20462;SDS011;10390;53.566;9.980;2023-10-08T05:35:48;6.22;;;5.40;;
20462;SDS011;10390;53.566;9.980;2023-10-08T05:38:15;6.32;;;5.72;;
20462;SDS011;10390;53.566;9.980;2023-10-08T05:40:49;6.18;;;5.40;;
20462;SDS011;10390;53.566;9.980;2023-10-08T05:46:07;5.78;;;5.28;;
20462;SDS011;10390;53.566;9.980;2023-10-08T05:48:49;6.38;;;5.72;;
20462;SDS011;10390;53.566;9.980;2023-10-08T05:51:31;6.70;;;6.00;;
20462;SDS011;10390;53.566;9.980;2023-10-08T05:54:13;6.72;;;5.63;;
20462;SDS011;10390;53.566;9.980;2023-10-08T05:56:56;5.80;;;5.00;;
20462;SDS011;10390;53.566;9.980;2023-10-08T05:59:37;5.45;;;4.80;;
20462;SDS011;10390;53.566;9.980;2023-10-08T06:02:17;6.13;;;5.25;;
20462;SDS011;10390;53.566;9.980;2023-10-08T06:05:00;7.38;;;5.22;;
20462;SDS011;10390;53.566;9.980;2023-10-08T06:10:18;5.65;;;4.90;;
20462;SDS011;10390;53.566;9.980;2023-10-08T06:15:55;6.07;;;5.10;;
20462;SDS011;10390;53.566;9.980;2023-10-08T06:18:23;6.45;;;5.25;;
20462;SDS011;10390;53.566;9.980;2023-10-08T06:23:25;5.95;;;4.95;;
20462;SDS011;10390;53.566;9.980;2023-10-08T06:25:53;7.15;;;5.50;;
20462;SDS011;10390;53.566;9.980;2023-10-08T06:28:24;7.75;;;5.25;;
20462;SDS011;10390;53.566;9.980;2023-10-08T06:30:51;7.07;;;5.10;;
20462;SDS011;10390;53.566;9.980;2023-10-08T06:33:19;5.50;;;4.72;;
20462;SDS011;10390;53.566;9.980;2023-10-08T06:35:46;5.60;;;4.70;;
20462;SDS011;10390;53.566;9.980;2023-10-08T06:38:26;5.65;;;4.80;;
20462;SDS011;10390;53.566;9.980;2023-10-08T06:40:54;7.30;;;4.70;;
20462;SDS011;10390;53.566;9.980;2023-10-08T06:43:21;6.05;;;4.90;;
20462;SDS011;10390;53.566;9.980;2023-10-08T06:45:49;6.47;;;4.80;;
20462;SDS011;10390;53.566;9.980;2023-10-08T06:48:18;6.90;;;4.80;;
20462;SDS011;10390;53.566;9.980;2023-10-08T06:50:48;7.75;;;4.70;;
20462;SDS011;10390;53.566;9.980;2023-10-08T06:53:15;5.80;;;4.53;;
20462;SDS011;10390;53.566;9.980;2023-10-08T06:55:45;7.03;;;4.78;;
20462;SDS011;10390;53.566;9.980;2023-10-08T06:58:13;7.10;;;4.78;;
20462;SDS011;10390;53.566;9.980;2023-10-08T07:00:40;8.98;;;5.25;;
20462;SDS011;10390;53.566;9.980;2023-10-08T07:03:12;5.57;;;4.38;;
20462;SDS011;10390;53.566;9.980;2023-10-08T07:05:43;6.15;;;5.10;;
20462;SDS011;10390;53.566;9.980;2023-10-08T07:08:20;6.40;;;4.68;;
20462;SDS011;10390;53.566;9.980;2023-10-08T07:10:48;7.10;;;4.97;;
20462;SDS011;10390;53.566;9.980;2023-10-08T07:13:15;7.10;;;4.63;;
20462;SDS011;10390;53.566;9.980;2023-10-08T07:15:43;9.38;;;5.10;;
20462;SDS011;10390;53.566;9.980;2023-10-08T07:18:10;10.15;;;4.90;;
20462;SDS011;10390;53.566;9.980;2023-10-08T07:20:38;7.95;;;4.70;;
20462;SDS011;10390;53.566;9.980;2023-10-08T07:23:06;11.45;;;5.18;;
20462;SDS011;10390;53.566;9.980;2023-10-08T07:25:59;10.60;;;6.18;;
20462;SDS011;10390;53.566;9.980;2023-10-08T07:28:38;7.93;;;4.95;;
20462;SDS011;10390;53.566;9.980;2023-10-08T07:31:12;8.93;;;4.97;;
20462;SDS011;10390;53.566;9.980;2023-10-08T07:33:46;11.27;;;5.07;;
20462;SDS011;10390;53.566;9.980;2023-10-08T07:36:24;8.40;;;5.10;;
20462;SDS011;10390;53.566;9.980;2023-10-08T07:38:51;9.75;;;4.95;;
20462;SDS011;10390;53.566;9.980;2023-10-08T07:41:18;13.00;;;5.55;;
20462;SDS011;10390;53.566;9.980;2023-10-08T07:43:45;12.80;;;5.13;;
20462;SDS011;10390;53.566;9.980;2023-10-08T07:46:20;11.93;;;5.40;;
20462;SDS011;10390;53.566;9.980;2023-10-08T07:48:51;9.75;;;5.15;;
20462;SDS011;10390;53.566;9.980;2023-10-08T07:51:17;12.82;;;5.22;;
20462;SDS011;10390;53.566;9.980;2023-10-08T07:53:47;9.93;;;5.30;;
20462;SDS011;10390;53.566;9.980;2023-10-08T07:56:14;14.00;;;5.85;;
20462;SDS011;10390;53.566;9.980;2023-10-08T07:58:39;14.57;;;6.00;;
20462;SDS011;10390;53.566;9.980;2023-10-08T08:01:06;14.73;;;6.00;;
20462;SDS011;10390;53.566;9.980;2023-10-08T08:03:33;15.07;;;6.13;;
20462;SDS011;10390;53.566;9.980;2023-10-08T08:06:02;13.55;;;6.10;;
20462;SDS011;10390;53.566;9.980;2023-10-08T08:08:32;13.57;;;5.80;;
20462;SDS011;10390;53.566;9.980;2023-10-08T08:10:59;11.40;;;6.03;;
20462;SDS011;10390;53.566;9.980;2023-10-08T08:13:30;12.30;;;5.72;;
20462;SDS011;10390;53.566;9.980;2023-10-08T08:15:58;24.25;;;6.57;;
20462;SDS011;10390;53.566;9.980;2023-10-08T08:18:34;17.67;;;6.90;;
20462;SDS011;10390;53.566;9.980;2023-10-08T08:21:01;11.32;;;6.13;;
20462;SDS011;10390;53.566;9.980;2023-10-08T08:23:30;17.23;;;6.40;;
20462;SDS011;10390;53.566;9.980;2023-10-08T08:25:56;14.10;;;6.95;;
20462;SDS011;10390;53.566;9.980;2023-10-08T08:28:38;11.95;;;6.10;;
20462;SDS011;10390;53.566;9.980;2023-10-08T08:31:05;10.43;;;5.68;;
20462;SDS011;10390;53.566;9.980;2023-10-08T08:33:39;15.35;;;6.35;;
20462;SDS011;10390;53.566;9.980;2023-10-08T08:36:25;16.48;;;6.03;;
20462;SDS011;10390;53.566;9.980;2023-10-08T08:38:55;14.85;;;6.30;;
20462;SDS011;10390;53.566;9.980;2023-10-08T08:41:21;12.88;;;6.00;;
20462;SDS011;10390;53.566;9.980;2023-10-08T08:43:49;18.70;;;7.43;;
20462;SDS011;10390;53.566;9.980;2023-10-08T08:46:33;18.35;;;7.15;;
20462;SDS011;10390;53.566;9.980;2023-10-08T08:49:09;19.35;;;6.88;;
20462;SDS011;10390;53.566;9.980;2023-10-08T08:51:37;18.65;;;6.85;;
20462;SDS011;10390;53.566;9.980;2023-10-08T08:54:03;10.93;;;6.47;;
20462;SDS011;10390;53.566;9.980;2023-10-08T08:56:35;17.05;;;6.95;;
20462;SDS011;10390;53.566;9.980;2023-10-08T08:59:04;23.30;;;7.47;;
20462;SDS011;10390;53.566;9.980;2023-10-08T09:01:30;22.85;;;7.25;;
20462;SDS011;10390;53.566;9.980;2023-10-08T09:04:04;22.17;;;7.78;;
20462;SDS011;10390;53.566;9.980;2023-10-08T09:06:32;16.52;;;7.18;;
20462;SDS011;10390;53.566;9.980;2023-10-08T09:09:04;22.42;;;7.53;;
20462;SDS011;10390;53.566;9.980;2023-10-08T09:11:48;19.17;;;7.18;;
20462;SDS011;10390;53.566;9.980;2023-10-08T09:14:21;17.15;;;6.85;;
20462;SDS011;10390;53.566;9.980;2023-10-08T09:16:48;18.90;;;6.63;;
20462;SDS011;10390;53.566;9.980;2023-10-08T09:19:15;14.27;;;6.63;;
20462;SDS011;10390;53.566;9.980;2023-10-08T09:22:03;14.82;;;6.28;;
20462;SDS011;10390;53.566;9.980;2023-10-08T09:24:34;24.15;;;6.22;;
20462;SDS011;10390;53.566;9.980;2023-10-08T09:27:03;20.83;;;7.47;;
20462;SDS011;10390;53.566;9.980;2023-10-08T09:29:29;13.50;;;6.70;;
20462;SDS011;10390;53.566;9.980;2023-10-08T09:31:56;13.00;;;5.85;;
20462;SDS011;10390;53.566;9.980;2023-10-08T09:34:26;15.13;;;6.28;;
20462;SDS011;10390;53.566;9.980;2023-10-08T09:36:56;17.15;;;7.07;;
20462;SDS011;10390;53.566;9.980;2023-10-08T09:39:25;24.40;;;7.53;;
20462;SDS011;10390;53.566;9.980;2023-10-08T09:41:56;20.05;;;6.65;;
20462;SDS011;10390;53.566;9.980;2023-10-08T09:44:23;19.90;;;6.95;;
20462;SDS011;10390;53.566;9.980;2023-10-08T09:46:53;16.48;;;7.07;;
20462;SDS011;10390;53.566;9.980;2023-10-08T09:49:29;17.55;;;7.22;;
20462;SDS011;10390;53.566;9.980;2023-10-08T09:52:19;24.75;;;6.88;;
20462;SDS011;10390;53.566;9.980;2023-10-08T09:54:49;16.85;;;7.20;;
20462;SDS011;10390;53.566;9.980;2023-10-08T09:57:21;20.55;;;6.97;;
20462;SDS011;10390;53.566;9.980;2023-10-08T09:59:51;14.73;;;6.57;;
20462;SDS011;10390;53.566;9.980;2023-10-08T10:02:16;17.83;;;7.22;;
20462;SDS011;10390;53.566;9.980;2023-10-08T10:04:43;18.83;;;6.00;;
20462;SDS011;10390;53.566;9.980;2023-10-08T10:07:10;15.57;;;6.55;;
20462;SDS011;10390;53.566;9.980;2023-10-08T10:09:44;16.98;;;7.05;;
20462;SDS011;10390;53.566;9.980;2023-10-08T10:12:12;12.65;;;6.32;;
20462;SDS011;10390;53.566;9.980;2023-10-08T10:14:43;15.82;;;6.32;;
20462;SDS011;10390;53.566;9.980;2023-10-08T10:17:14;15.57;;;6.22;;
20462;SDS011;10390;53.566;9.980;2023-10-08T10:19:49;15.85;;;6.38;;
20462;SDS011;10390;53.566;9.980;2023-10-08T10:22:26;16.48;;;6.22;;
20462;SDS011;10390;53.566;9.980;2023-10-08T10:25:02;11.45;;;5.90;;
20462;SDS011;10390;53.566;9.980;2023-10-08T10:27:41;15.27;;;6.60;;
20462;SDS011;10390;53.566;9.980;2023-10-08T10:30:08;12.85;;;6.50;;
20462;SDS011;10390;53.566;9.980;2023-10-08T10:32:36;11.68;;;5.95;;
20462;SDS011;10390;53.566;9.980;2023-10-08T10:35:02;18.70;;;6.72;;
20462;SDS011;10390;53.566;9.980;2023-10-08T10:37:30;15.45;;;5.90;;
20462;SDS011;10390;53.566;9.980;2023-10-08T10:40:06;15.38;;;6.28;;
20462;SDS011;10390;53.566;9.980;2023-10-08T10:42:37;14.50;;;7.00;;
20462;SDS011;10390;53.566;9.980;2023-10-08T10:45:16;18.05;;;6.70;;
20462;SDS011;10390;53.566;9.980;2023-10-08T10:48:01;14.75;;;6.25;;
20462;SDS011;10390;53.566;9.980;2023-10-08T10:50:39;19.77;;;7.00;;
20462;SDS011;10390;53.566;9.980;2023-10-08T10:53:24;17.20;;;6.18;;
20462;SDS011;10390;53.566;9.980;2023-10-08T10:55:52;17.20;;;6.57;;
20462;SDS011;10390;53.566;9.980;2023-10-08T10:58:28;19.70;;;7.13;;
20462;SDS011;10390;53.566;9.980;2023-10-08T11:01:03;15.48;;;6.65;;
20462;SDS011;10390;53.566;9.980;2023-10-08T11:03:32;15.95;;;6.68;;
20462;SDS011;10390;53.566;9.980;2023-10-08T11:06:00;16.70;;;6.72;;
20462;SDS011;10390;53.566;9.980;2023-10-08T11:08:31;17.15;;;6.43;;
20462;SDS011;10390;53.566;9.980;2023-10-08T11:11:00;23.00;;;7.13;;
20462;SDS011;10390;53.566;9.980;2023-10-08T11:13:30;21.83;;;7.75;;
20462;SDS011;10390;53.566;9.980;2023-10-08T11:16:04;17.67;;;6.38;;
20462;SDS011;10390;53.566;9.980;2023-10-08T11:18:32;26.10;;;7.30;;
20462;SDS011;10390;53.566;9.980;2023-10-08T11:21:08;19.55;;;7.63;;
20462;SDS011;10390;53.566;9.980;2023-10-08T11:23:41;23.00;;;8.18;;
20462;SDS011;10390;53.566;9.980;2023-10-08T11:26:11;13.45;;;7.32;;
20462;SDS011;10390;53.566;9.980;2023-10-08T11:28:40;18.67;;;8.20;;
20462;SDS011;10390;53.566;9.980;2023-10-08T11:31:12;18.55;;;7.55;;
20462;SDS011;10390;53.566;9.980;2023-10-08T11:33:43;19.00;;;8.45;;
20462;SDS011;10390;53.566;9.980;2023-10-08T11:36:29;18.42;;;7.43;;
20462;SDS011;10390;53.566;9.980;2023-10-08T11:39:09;15.07;;;8.10;;
20462;SDS011;10390;53.566;9.980;2023-10-08T11:41:39;16.23;;;7.53;;
20462;SDS011;10390;53.566;9.980;2023-10-08T11:44:17;16.02;;;7.72;;
20462;SDS011;10390;53.566;9.980;2023-10-08T11:46:45;14.73;;;7.28;;
20462;SDS011;10390;53.566;9.980;2023-10-08T11:49:16;22.63;;;10.05;;
20462;SDS011;10390;53.566;9.980;2023-10-08T11:51:50;24.50;;;8.45;;
20462;SDS011;10390;53.566;9.980;2023-10-08T11:54:17;19.45;;;8.32;;
20462;SDS011;10390;53.566;9.980;2023-10-08T11:56:45;22.52;;;8.88;;
20462;SDS011;10390;53.566;9.980;2023-10-08T11:59:12;22.33;;;8.43;;
20462;SDS011;10390;53.566;9.980;2023-10-08T12:01:38;18.50;;;7.55;;
20462;SDS011;10390;53.566;9.980;2023-10-08T12:04:07;18.67;;;8.50;;
20462;SDS011;10390;53.566;9.980;2023-10-08T12:06:41;16.08;;;8.30;;
20462;SDS011;10390;53.566;9.980;2023-10-08T12:09:17;19.67;;;8.32;;
20462;SDS011;10390;53.566;9.980;2023-10-08T12:11:47;17.40;;;8.32;;
20462;SDS011;10390;53.566;9.980;2023-10-08T12:14:13;16.60;;;8.07;;
20462;SDS011;10390;53.566;9.980;2023-10-08T12:16:40;15.82;;;7.15;;
20462;SDS011;10390;53.566;9.980;2023-10-08T12:19:06;15.95;;;7.63;;
20462;SDS011;10390;53.566;9.980;2023-10-08T12:21:42;15.68;;;7.93;;
20462;SDS011;10390;53.566;9.980;2023-10-08T12:24:12;13.65;;;7.47;;
20462;SDS011;10390;53.566;9.980;2023-10-08T12:26:39;13.80;;;7.13;;
20462;SDS011;10390;53.566;9.980;2023-10-08T12:29:10;15.57;;;7.93;;
20462;SDS011;10390;53.566;9.980;2023-10-08T12:31:39;16.20;;;7.50;;
20462;SDS011;10390;53.566;9.980;2023-10-08T12:34:05;13.93;;;7.78;;
20462;SDS011;10390;53.566;9.980;2023-10-08T12:36:31;15.43;;;7.25;;
20462;SDS011;10390;53.566;9.980;2023-10-08T12:39:01;13.10;;;7.40;;
20462;SDS011;10390;53.566;9.980;2023-10-08T12:41:34;14.82;;;7.68;;
20462;SDS011;10390;53.566;9.980;2023-10-08T12:44:03;11.40;;;7.03;;
20462;SDS011;10390;53.566;9.980;2023-10-08T12:46:32;14.15;;;7.45;;
20462;SDS011;10390;53.566;9.980;2023-10-08T12:48:59;16.42;;;7.45;;
20462;SDS011;10390;53.566;9.980;2023-10-08T12:51:26;13.45;;;7.75;;
20462;SDS011;10390;53.566;9.980;2023-10-08T12:53:57;14.27;;;8.00;;
20462;SDS011;10390;53.566;9.980;2023-10-08T12:56:29;12.98;;;7.60;;
20462;SDS011;10390;53.566;9.980;2023-10-08T12:59:03;10.82;;;6.50;;
20462;SDS011;10390;53.566;9.980;2023-10-08T13:01:31;13.82;;;7.35;;
20462;SDS011;10390;53.566;9.980;2023-10-08T13:04:00;13.88;;;7.20;;
20462;SDS011;10390;53.566;9.980;2023-10-08T13:06:32;9.27;;;6.22;;
20462;SDS011;10390;53.566;9.980;2023-10-08T13:08:58;9.10;;;5.75;;
20462;SDS011;10390;53.566;9.980;2023-10-08T13:11:25;12.13;;;6.40;;
20462;SDS011;10390;53.566;9.980;2023-10-08T13:13:54;12.07;;;7.22;;
20462;SDS011;10390;53.566;9.980;2023-10-08T13:16:24;12.98;;;6.47;;
20462;SDS011;10390;53.566;9.980;2023-10-08T13:18:51;9.15;;;6.18;;
20462;SDS011;10390;53.566;9.980;2023-10-08T13:21:17;12.80;;;6.40;;
20462;SDS011;10390;53.566;9.980;2023-10-08T13:23:49;9.77;;;6.68;;
20462;SDS011;10390;53.566;9.980;2023-10-08T13:26:18;10.18;;;6.63;;
20462;SDS011;10390;53.566;9.980;2023-10-08T13:28:47;10.35;;;6.35;;
20462;SDS011;10390;53.566;9.980;2023-10-08T13:31:13;10.60;;;6.45;;
20462;SDS011;10390;53.566;9.980;2023-10-08T13:33:42;8.63;;;5.57;;
20462;SDS011;10390;53.566;9.980;2023-10-08T13:36:09;9.43;;;6.20;;
20462;SDS011;10390;53.566;9.980;2023-10-08T13:38:36;10.85;;;7.10;;
20462;SDS011;10390;53.566;9.980;2023-10-08T13:41:05;10.55;;;6.50;;
20462;SDS011;10390;53.566;9.980;2023-10-08T13:43:40;8.77;;;6.10;;
20462;SDS011;10390;53.566;9.980;2023-10-08T13:46:06;7.18;;;5.82;;
20462;SDS011;10390;53.566;9.980;2023-10-08T13:48:38;10.35;;;6.88;;
20462;SDS011;10390;53.566;9.980;2023-10-08T13:51:05;9.93;;;6.90;;
20462;SDS011;10390;53.566;9.980;2023-10-08T13:53:36;8.18;;;6.47;;
20462;SDS011;10390;53.566;9.980;2023-10-08T13:56:04;8.80;;;5.97;;
20462;SDS011;10390;53.566;9.980;2023-10-08T13:58:33;7.90;;;5.88;;
20462;SDS011;10390;53.566;9.980;2023-10-08T14:01:10;9.73;;;6.88;;
20462;SDS011;10390;53.566;9.980;2023-10-08T14:03:49;8.73;;;6.63;;
20462;SDS011;10390;53.566;9.980;2023-10-08T14:06:18;7.70;;;5.78;;
20462;SDS011;10390;53.566;9.980;2023-10-08T14:08:46;9.73;;;5.75;;
20462;SDS011;10390;53.566;9.980;2023-10-08T14:11:18;6.45;;;5.57;;
20462;SDS011;10390;53.566;9.980;2023-10-08T14:13:44;8.40;;;5.57;;
20462;SDS011;10390;53.566;9.980;2023-10-08T14:16:12;8.73;;;6.18;;
20462;SDS011;10390;53.566;9.980;2023-10-08T14:18:39;7.05;;;5.85;;
20462;SDS011;10390;53.566;9.980;2023-10-08T14:21:10;6.45;;;5.47;;
20462;SDS011;10390;53.566;9.980;2023-10-08T14:23:36;7.65;;;5.53;;
20462;SDS011;10390;53.566;9.980;2023-10-08T14:26:04;7.53;;;5.40;;
20462;SDS011;10390;53.566;9.980;2023-10-08T14:28:32;6.57;;;5.00;;
20462;SDS011;10390;53.566;9.980;2023-10-08T14:31:17;6.63;;;4.70;;
20462;SDS011;10390;53.566;9.980;2023-10-08T14:33:47;7.28;;;5.10;;
20462;SDS011;10390;53.566;9.980;2023-10-08T14:36:47;6.68;;;5.38;;
20462;SDS011;10390;53.566;9.980;2023-10-08T14:39:32;7.95;;;5.78;;
20462;SDS011;10390;53.566;9.980;2023-10-08T14:42:17;6.90;;;5.60;;
20462;SDS011;10390;53.566;9.980;2023-10-08T14:45:02;6.95;;;5.45;;
20462;SDS011;10390;53.566;9.980;2023-10-08T14:47:36;7.72;;;5.70;;
20462;SDS011;10390;53.566;9.980;2023-10-08T14:50:05;6.47;;;5.10;;
20462;SDS011;10390;53.566;9.980;2023-10-08T14:52:41;7.05;;;5.60;;
20462;SDS011;10390;53.566;9.980;2023-10-08T14:55:10;7.35;;;5.55;;
20462;SDS011;10390;53.566;9.980;2023-10-08T14:57:37;7.03;;;5.38;;
20462;SDS011;10390;53.566;9.980;2023-10-08T15:00:04;7.45;;;5.75;;
20462;SDS011;10390;53.566;9.980;2023-10-08T15:02:30;6.10;;;5.47;;
20462;SDS011;10390;53.566;9.980;2023-10-08T15:04:58;6.85;;;5.35;;
20462;SDS011;10390;53.566;9.980;2023-10-08T15:07:26;6.10;;;5.10;;
20462;SDS011;10390;53.566;9.980;2023-10-08T15:09:54;6.40;;;4.57;;
20462;SDS011;10390;53.566;9.980;2023-10-08T15:12:25;6.20;;;4.78;;
20462;SDS011;10390;53.566;9.980;2023-10-08T15:14:52;6.20;;;4.65;;
20462;SDS011;10390;53.566;9.980;2023-10-08T15:17:18;5.47;;;4.47;;